Time;durP1;ratioP1;P1;durP2;ratioP2;P2;SDS_P1;SDS_P2;PMS_P1;PMS_P2;Temp;Humidity;BMP_temperature;BMP_pressure;BME280_temperature;BME280_humidity;BME280_pressure;Samples;Min_cycle;Max_cycle;Signal;HPM_P1;HPM_P2
2022/11/23 00:00:35;;;;;;;18.13;13.17;;;;;;;-0.38;100.00;99265.61;1762957;81;21051;-69
2022/11/23 00:03:02;;;;;;;18.07;14.93;;;;;;;-0.36;100.00;99264.90;1767683;80;21120;-72
2022/11/23 00:05:30;;;;;;;18.23;13.73;;;;;;;-0.35;100.00;99279.75;1747273;80;21001;-68
2022/11/23 00:07:57;;;;;;;15.10;12.27;;;;;;;-0.34;100.00;99283.53;1756977;81;20994;-70
2022/11/23 00:10:24;;;;;;;15.80;11.90;;;;;;;-0.34;100.00;99286.17;1762865;80;21003;-69
2022/11/23 00:12:51;;;;;;;14.43;11.30;;;;;;;-0.35;100.00;99288.50;1750198;80;21073;-69
2022/11/23 00:15:17;;;;;;;13.97;12.23;;;;;;;-0.36;100.00;99282.08;1766988;80;22709;-69
2022/11/23 00:17:47;;;;;;;16.97;11.57;;;;;;;-0.38;100.00;99276.97;1762202;80;20943;-69
2022/11/23 00:20:14;;;;;;;14.37;11.07;;;;;;;-0.37;100.00;99287.03;1762903;80;21575;-70
2022/11/23 00:22:41;;;;;;;15.27;11.00;;;;;;;-0.35;100.00;99286.36;1772589;80;21017;-73
2022/11/23 00:25:08;;;;;;;13.23;11.17;;;;;;;-0.34;100.00;99295.92;1768601;80;21105;-70
2022/11/23 00:27:36;;;;;;;19.07;12.70;;;;;;;-0.42;100.00;99290.25;1754507;80;21874;-70
2022/11/23 00:30:04;;;;;;;14.67;10.97;;;;;;;-0.42;100.00;99288.92;1773338;80;20924;-70
2022/11/23 00:32:31;;;;;;;14.80;10.83;;;;;;;-0.40;100.00;99297.49;1781932;80;20990;-71
2022/11/23 00:34:58;;;;;;;15.37;12.07;;;;;;;-0.37;100.00;99285.72;1780915;80;21030;-69
2022/11/23 00:37:25;;;;;;;17.30;12.03;;;;;;;-0.35;100.00;99290.31;1791877;80;22204;-72
2022/11/23 00:39:51;;;;;;;14.07;10.73;;;;;;;-0.35;100.00;99295.10;1778001;80;21776;-72
2022/11/23 00:42:18;;;;;;;15.07;11.53;;;;;;;-0.36;100.00;99288.17;1782918;80;21566;-74
2022/11/23 00:44:45;;;;;;;13.87;10.40;;;;;;;-0.37;100.00;99294.45;1766555;80;21654;-70
2022/11/23 00:47:12;;;;;;;16.93;12.30;;;;;;;-0.36;100.00;99300.56;1781971;80;21025;-71
2022/11/23 00:49:38;;;;;;;15.77;12.37;;;;;;;-0.34;100.00;99289.32;1784516;80;21100;-71
2022/11/23 00:52:06;;;;;;;15.63;11.00;;;;;;;-0.32;100.00;99292.06;1769730;80;21089;-69
2022/11/23 00:54:33;;;;;;;17.20;12.03;;;;;;;-0.30;100.00;99293.20;1788173;80;20999;-69
2022/11/23 00:57:00;;;;;;;12.23;10.73;;;;;;;-0.28;100.00;99299.10;1769305;79;21114;-68
2022/11/23 00:59:28;;;;;;;12.73;9.57;;;;;;;-0.26;100.00;99299.24;1787967;80;21081;-70
2022/11/23 01:01:55;;;;;;;10.43;8.17;;;;;;;-0.23;100.00;99300.67;1778521;80;21082;-70
2022/11/23 01:04:22;;;;;;;15.90;10.67;;;;;;;-0.24;100.00;99293.25;1783043;80;21185;-70
2022/11/23 01:06:54;;;;;;;12.43;9.67;;;;;;;-0.24;100.00;99293.78;1764266;80;21025;-69
2022/11/23 01:09:23;;;;;;;14.40;10.73;;;;;;;-0.25;100.00;99297.42;1742610;80;20981;-68
2022/11/23 01:11:51;;;;;;;13.30;10.90;;;;;;;-0.28;100.00;99292.00;1765600;80;21005;-70
2022/11/23 01:14:20;;;;;;;13.80;10.13;;;;;;;-0.27;100.00;99291.50;1764581;80;21082;-70
2022/11/23 01:16:46;;;;;;;12.80;9.97;;;;;;;-0.25;100.00;99300.89;1781604;80;21039;-70
2022/11/23 01:19:16;;;;;;;10.87;9.00;;;;;;;-0.23;100.00;99303.31;1762711;80;21050;-70
2022/11/23 01:21:43;;;;;;;11.00;9.40;;;;;;;-0.26;100.00;99299.74;1771700;80;20994;-69
2022/11/23 01:24:21;;;;;;;11.20;9.73;;;;;;;-0.30;100.00;99295.36;1772343;80;21026;-71
2022/11/23 01:26:52;;;;;;;13.27;10.43;;;;;;;-0.28;100.00;99294.64;1751988;80;21015;-69
2022/11/23 01:29:21;;;;;;;14.40;9.40;;;;;;;-0.25;100.00;99310.13;1752384;80;21517;-71
2022/11/23 01:31:47;;;;;;;11.40;8.97;;;;;;;-0.21;100.00;99313.20;1770793;80;21023;-69
2022/11/23 01:34:14;;;;;;;13.80;9.40;;;;;;;-0.17;100.00;99315.28;1781428;80;21550;-75
2022/11/23 01:36:41;;;;;;;13.70;9.47;;;;;;;-0.15;100.00;99309.31;1761205;80;21551;-75
2022/11/23 01:39:09;;;;;;;10.70;9.30;;;;;;;-0.10;100.00;99312.70;1752041;81;21066;-74
2022/11/23 01:41:39;;;;;;;11.03;9.47;;;;;;;-0.09;100.00;99309.03;1733237;81;21089;-72
2022/11/23 01:44:25;;;;;;;13.40;9.83;;;;;;;-0.13;100.00;99313.89;1779993;80;20996;-69
2022/11/23 01:46:56;;;;;;;12.63;9.60;;;;;;;-0.17;100.00;99315.78;1755704;81;21025;-68
2022/11/23 01:49:23;;;;;;;14.13;8.83;;;;;;;-0.16;100.00;99318.74;1745069;81;21011;-69
2022/11/23 01:51:51;;;;;;;11.67;9.77;;;;;;;-0.12;100.00;99319.48;1730981;81;21653;-71
2022/11/23 01:54:24;;;;;;;13.30;9.27;;;;;;;-0.10;100.00;99318.81;1776421;80;21150;-67
2022/11/23 01:56:54;;;;;;;12.93;8.68;;;;;;;-0.05;100.00;99312.95;1758448;81;21142;-69
2022/11/23 01:59:22;;;;;;;12.30;8.73;;;;;;;-0.01;100.00;99312.38;1738753;80;21603;-69
2022/11/23 02:01:52;;;;;;;13.97;11.03;;;;;;;0.00;100.00;99312.66;1755584;80;21002;-70
2022/11/23 02:04:27;;;;;;;13.38;9.68;;;;;;;0.00;100.00;99311.88;1754287;80;21014;-67
2022/11/23 02:06:54;;;;;;;13.60;10.70;;;;;;;0.02;100.00;99312.98;1733986;81;21235;-67
2022/11/23 02:09:21;;;;;;;11.93;9.18;;;;;;;0.03;100.00;99320.73;1739162;81;21021;-69
2022/11/23 02:11:50;;;;;;;12.17;10.93;;;;;;;0.07;100.00;99328.59;1749243;81;20970;-68
2022/11/23 02:14:17;;;;;;;12.20;10.57;;;;;;;0.08;100.00;99325.45;1757146;81;21065;-69
2022/11/23 02:16:45;;;;;;;13.03;9.80;;;;;;;0.08;100.00;99325.45;1756541;81;21452;-71
2022/11/23 02:19:33;;;;;;;13.60;10.25;;;;;;;0.09;100.00;99322.63;1756466;81;21201;-69
2022/11/23 02:22:01;;;;;;;12.53;9.98;;;;;;;0.13;100.00;99325.19;1759380;80;20973;-70
2022/11/23 02:24:34;;;;;;;14.33;10.40;;;;;;;0.19;100.00;99328.90;1732479;81;21034;-70
2022/11/23 02:27:02;;;;;;;12.07;9.73;;;;;;;0.20;100.00;99331.83;1737858;81;21093;-67
2022/11/23 02:29:29;;;;;;;13.53;10.37;;;;;;;0.24;100.00;99335.22;1789368;80;20989;-69
2022/11/23 02:31:59;;;;;;;13.63;10.20;;;;;;;0.31;100.00;99332.64;1743027;81;20938;-69
2022/11/23 02:34:26;;;;;;;15.55;12.23;;;;;;;0.31;100.00;99325.52;1759299;80;21018;-69
2022/11/23 02:36:55;;;;;;;8.87;7.83;;;;;;;0.33;100.00;99327.98;1768446;80;20924;-69
2022/11/23 02:39:40;;;;;;;12.47;9.28;;;;;;;0.31;100.00;99331.31;1790312;80;20971;-68
2022/11/23 02:42:08;;;;;;;13.28;10.13;;;;;;;0.27;99.99;99326.10;1788323;80;21545;-71
2022/11/23 02:45:12;;;;;;;9.98;8.35;;;;;;;0.28;99.99;99335.67;1789383;80;22240;-69
2022/11/23 02:47:39;;;;;;;14.53;10.17;;;;;;;0.28;99.83;99347.08;1771203;80;21014;-70
2022/11/23 02:50:08;;;;;;;14.93;10.80;;;;;;;0.25;99.74;99339.51;1775286;78;21547;-71
2022/11/23 02:52:36;;;;;;;14.93;10.53;;;;;;;0.28;99.82;99343.61;1788782;80;21021;-69
2022/11/23 02:55:02;;;;;;;13.27;11.23;;;;;;;0.26;99.66;99342.47;1702295;81;21546;-69
2022/11/23 02:57:29;;;;;;;17.67;12.73;;;;;;;0.24;99.62;99351.09;1735570;81;21642;-69
2022/11/23 02:59:56;;;;;;;13.98;10.18;;;;;;;0.17;99.45;99347.59;1758321;80;21510;-69
2022/11/23 03:02:24;;;;;;;11.78;9.43;;;;;;;0.15;99.67;99346.13;1743665;81;21018;-70
2022/11/23 03:04:52;;;;;;;14.67;11.27;;;;;;;0.14;99.76;99351.95;1758100;81;20935;-69
2022/11/23 03:07:21;;;;;;;13.80;10.53;;;;;;;0.12;99.72;99351.31;1751384;81;21030;-68
2022/11/23 03:09:48;;;;;;;14.10;9.73;;;;;;;0.12;99.88;99353.13;1756851;81;22081;-68
2022/11/23 03:12:15;;;;;;;18.97;10.70;;;;;;;0.13;99.96;99352.95;1756679;81;21037;-69
2022/11/23 03:14:43;;;;;;;13.98;10.32;;;;;;;0.13;100.00;99346.34;1757962;81;21624;-70
2022/11/23 03:17:09;;;;;;;16.10;11.38;;;;;;;0.15;100.00;99358.84;1760452;80;21672;-70
2022/11/23 03:19:39;;;;;;;13.75;10.03;;;;;;;0.16;100.00;99350.41;1764455;80;21025;-69
2022/11/23 03:22:08;;;;;;;14.03;10.72;;;;;;;0.17;100.00;99350.73;1787721;80;21466;-68
2022/11/23 03:24:36;;;;;;;16.70;10.88;;;;;;;0.17;100.00;99351.55;1787179;80;21020;-69
2022/11/23 03:27:06;;;;;;;15.67;10.77;;;;;;;0.17;99.99;99350.23;1771311;80;21006;-68
2022/11/23 03:29:35;;;;;;;13.70;10.95;;;;;;;0.15;99.99;99352.23;1749413;82;21109;-69
2022/11/23 03:32:05;;;;;;;16.48;10.68;;;;;;;0.16;100.00;99355.20;1693135;82;21081;-70
2022/11/23 03:34:32;;;;;;;14.38;11.53;;;;;;;0.17;100.00;99345.45;1711537;80;21219;-68
2022/11/23 03:36:59;;;;;;;13.32;9.70;;;;;;;0.18;100.00;99345.27;1744281;81;21119;-71
2022/11/23 03:39:25;;;;;;;13.68;9.98;;;;;;;0.19;100.00;99342.91;1730884;82;20991;-70
2022/11/23 03:42:04;;;;;;;12.73;10.23;;;;;;;0.20;99.99;99340.58;1739634;81;20893;-69
2022/11/23 03:44:33;;;;;;;15.28;11.18;;;;;;;0.21;99.89;99334.80;1761232;81;21054;-70
2022/11/23 03:47:01;;;;;;;13.35;9.73;;;;;;;0.19;99.74;99344.23;1748028;81;21030;-70
2022/11/23 03:49:27;;;;;;;12.13;8.23;;;;;;;0.16;99.61;99354.38;1730778;82;21010;-68
2022/11/23 03:51:54;;;;;;;14.40;10.27;;;;;;;0.14;99.54;99360.38;1736390;81;20920;-69
2022/11/23 03:54:22;;;;;;;13.35;9.65;;;;;;;0.10;99.45;99350.67;1761156;81;21035;-67
2022/11/23 03:56:48;;;;;;;15.87;10.93;;;;;;;0.10;99.53;99355.14;1751442;81;21563;-69
2022/11/23 03:59:28;;;;;;;12.73;8.67;;;;;;;0.11;99.55;99362.89;1729226;83;20946;-68
2022/11/23 04:01:54;;;;;;;12.07;9.43;;;;;;;0.13;99.38;99373.28;1728829;81;21162;-69
2022/11/23 04:04:23;;;;;;;13.47;9.90;;;;;;;0.11;99.39;99365.53;1728738;82;21566;-67
2022/11/23 04:07:02;;;;;;;14.93;9.87;;;;;;;0.11;99.36;99364.70;1628123;81;21051;-69
2022/11/23 04:09:32;;;;;;;15.95;12.07;;;;;;;0.08;99.31;99369.89;1759126;81;21027;-69
2022/11/23 04:12:08;;;;;;;13.60;10.60;;;;;;;0.06;99.35;99377.68;1758799;79;21534;-71
2022/11/23 04:14:35;;;;;;;17.23;11.07;;;;;;;0.07;99.49;99374.86;1759379;81;21549;-69
2022/11/23 04:17:02;;;;;;;15.30;11.48;;;;;;;0.08;99.43;99379.64;1727013;82;21022;-70
2022/11/23 04:19:30;;;;;;;15.32;9.73;;;;;;;0.11;99.59;99381.89;1737875;81;21035;-68
2022/11/23 04:21:56;;;;;;;15.43;11.48;;;;;;;0.13;99.65;99382.53;1739547;80;21522;-69
2022/11/23 04:24:23;;;;;;;11.00;8.28;;;;;;;0.13;99.49;99378.06;1729939;80;21499;-69
2022/11/23 04:26:52;;;;;;;14.53;10.10;;;;;;;0.12;99.47;99373.78;1754570;79;20985;-68
2022/11/23 04:29:19;;;;;;;14.65;10.95;;;;;;;0.11;99.49;99372.64;1756838;81;21056;-70
2022/11/23 06:18:21;;;;;;;11.00;9.57;;;;;;;-0.69;100.00;99427.80;1885641;76;22576;-79
2022/11/23 06:20:50;;;;;;;12.97;10.43;;;;;;;-0.63;100.00;99440.78;1858996;77;20967;-80
2022/11/23 06:23:18;;;;;;;15.13;10.60;;;;;;;-0.55;100.00;99446.77;1859736;77;21770;-76
2022/11/23 06:25:45;;;;;;;17.43;10.97;;;;;;;-0.45;100.00;99448.62;1821669;77;21704;-78
2022/11/23 06:28:16;;;;;;;13.53;10.03;;;;;;;-0.35;100.00;99455.43;1812496;78;20927;-78
2022/11/23 06:30:44;;;;;;;10.10;8.80;;;;;;;-0.27;100.00;99450.03;1827920;77;20958;-80
2022/11/23 06:33:12;;;;;;;14.43;10.13;;;;;;;-0.17;100.00;99445.27;1821907;78;20924;-78
2022/11/23 06:35:40;;;;;;;11.67;9.63;;;;;;;-0.07;100.00;99447.11;1851298;77;21159;-83
2022/11/23 06:38:07;;;;;;;11.57;9.13;;;;;;;-0.01;100.00;99445.05;1826300;77;20975;-83
2022/11/23 06:40:36;;;;;;;12.57;8.80;;;;;;;0.01;100.00;99448.30;1855367;77;20916;-79
2022/11/23 06:43:03;;;;;;;16.07;10.63;;;;;;;0.00;100.00;99453.30;1833103;77;20999;-80
2022/11/23 06:45:34;;;;;;;14.00;10.50;;;;;;;0.02;100.00;99454.41;1825632;78;20967;-79
2022/11/23 06:48:05;;;;;;;14.03;10.43;;;;;;;0.04;100.00;99454.55;1847141;77;21165;-77
2022/11/23 06:50:32;;;;;;;13.70;10.30;;;;;;;0.07;100.00;99452.84;1840902;77;20983;-80
2022/11/23 06:52:58;;;;;;;7.97;7.07;;;;;;;0.08;100.00;99447.06;1860877;77;20975;-79
2022/11/23 06:55:35;;;;;;;16.33;11.30;;;;;;;0.11;100.00;99455.92;1858892;77;20986;-80
2022/11/23 06:58:01;;;;;;;11.83;8.23;;;;;;;0.06;100.00;99459.13;1826530;77;21118;-79
2022/11/23 07:00:28;;;;;;;12.90;9.80;;;;;;;0.08;100.00;99456.31;1857086;77;21521;-80
2022/11/23 07:02:56;;;;;;;11.53;9.13;;;;;;;0.10;100.00;99461.70;1838413;77;20975;-80
2022/11/23 07:05:25;;;;;;;15.90;11.90;;;;;;;0.10;100.00;99454.28;1811637;77;21019;-78
2022/11/23 07:07:55;;;;;;;11.63;8.63;;;;;;;0.08;100.00;99453.66;1764771;80;21130;-79
2022/11/23 07:10:24;;;;;;;12.53;10.32;;;;;;;0.09;100.00;99449.52;1782722;79;21008;-76
2022/11/23 07:12:53;;;;;;;9.67;8.10;;;;;;;0.10;100.00;99449.81;1781824;80;21690;-79
2022/11/23 07:15:20;;;;;;;16.15;12.35;;;;;;;0.13;100.00;99453.42;1782006;80;20999;-79
2022/11/23 07:17:47;;;;;;;15.47;11.53;;;;;;;0.11;100.00;99452.78;1793278;79;20920;-78
2022/11/23 07:20:15;;;;;;;14.87;10.68;;;;;;;0.13;100.00;99452.10;1797814;78;20947;-79
2022/11/23 07:22:43;;;;;;;13.43;10.85;;;;;;;0.19;100.00;99461.11;1761478;81;21041;-78
2022/11/23 07:25:17;;;;;;;14.63;12.47;;;;;;;0.14;100.00;99456.39;1761461;81;21950;-79
2022/11/23 07:27:40;;;;;;;24.75;12.70;;;;;;;0.18;100.00;99462.11;1726193;81;21010;-79
2022/11/23 07:30:09;;;;;;;16.00;10.70;;;;;;;0.29;100.00;99469.52;1756171;81;21002;-81
2022/11/23 07:32:36;;;;;;;14.25;11.28;;;;;;;0.34;100.00;99463.16;1736966;81;20970;-82
2022/11/23 07:35:03;;;;;;;16.12;11.53;;;;;;;0.34;100.00;99454.72;1764063;80;21038;-76
2022/11/23 07:37:30;;;;;;;17.02;11.15;;;;;;;0.36;100.00;99464.62;1792375;80;21214;-79
2022/11/23 07:39:56;;;;;;;13.58;9.95;;;;;;;0.38;100.00;99470.52;1770823;80;21142;-79
2022/11/23 07:42:24;;;;;;;13.15;9.55;;;;;;;0.42;99.93;99469.66;1762355;80;21545;-79
2022/11/23 07:44:51;;;;;;;16.32;12.00;;;;;;;0.45;99.77;99481.17;1760632;81;21636;-75
2022/11/23 07:47:18;;;;;;;14.53;11.30;;;;;;;0.44;99.54;99476.39;1789997;80;21049;-77
2022/11/23 07:49:46;;;;;;;21.30;14.23;;;;;;;0.47;99.45;99482.31;1777721;80;21150;-78
2022/11/23 07:52:13;;;;;;;20.35;14.10;;;;;;;0.43;99.31;99487.97;1768052;80;21490;-76
2022/11/23 07:54:41;;;;;;;18.92;14.38;;;;;;;0.39;98.94;99481.42;1760758;81;21531;-85
2022/11/23 07:57:09;;;;;;;18.00;14.58;;;;;;;0.31;98.86;99478.09;1774010;80;21502;-81
2022/11/23 07:59:37;;;;;;;16.77;13.32;;;;;;;0.29;98.96;99485.39;1786507;80;21062;-80
2022/11/23 08:02:03;;;;;;;18.52;15.13;;;;;;;0.32;99.07;99487.67;1768705;80;21140;-81
2022/11/23 08:04:30;;;;;;;20.35;12.93;;;;;;;0.32;99.06;99486.35;1725733;81;20988;-77
2022/11/23 08:06:56;;;;;;;24.27;16.62;;;;;;;0.34;98.96;99490.93;1759028;81;21025;-83
2022/11/23 08:09:23;;;;;;;24.65;18.82;;;;;;;0.34;98.94;99494.39;1789950;80;20958;-85
2022/11/23 08:11:52;;;;;;;20.77;14.23;;;;;;;0.38;98.90;99494.86;1760628;80;21047;-83
2022/11/23 08:14:19;;;;;;;14.30;11.65;;;;;;;0.43;98.91;99499.09;1784211;80;21174;-83
2022/11/23 08:16:49;;;;;;;14.43;11.70;;;;;;;0.47;98.77;99501.66;1770492;80;21002;-84
2022/11/23 08:19:16;;;;;;;18.00;13.28;;;;;;;0.47;98.61;99503.48;1761507;80;21014;-85
2022/11/23 08:21:44;;;;;;;15.53;12.00;;;;;;;0.49;98.56;99500.13;1762633;80;21263;-82
2022/11/23 08:24:13;;;;;;;15.88;11.53;;;;;;;0.53;98.55;99498.77;1760801;80;21346;-81
2022/11/23 08:26:41;;;;;;;18.35;13.15;;;;;;;0.55;98.37;99508.14;1737644;80;20975;-77
2022/11/23 08:29:07;;;;;;;19.12;14.00;;;;;;;0.53;98.29;99511.46;1770815;80;21045;-75
2022/11/23 08:31:34;;;;;;;17.50;13.22;;;;;;;0.59;98.45;99517.83;1760420;81;21075;-77
2022/11/23 08:34:03;;;;;;;18.10;12.47;;;;;;;0.61;98.26;99503.41;1760662;81;21033;-76
2022/11/23 08:36:30;;;;;;;17.52;14.13;;;;;;;0.59;97.78;99509.39;1762532;80;21070;-77
2022/11/23 08:38:56;;;;;;;17.10;13.08;;;;;;;0.58;97.86;99514.86;1789211;80;21282;-80
2022/11/23 08:41:23;;;;;;;16.50;11.70;;;;;;;0.59;97.91;99505.42;1761329;80;20967;-76
2022/11/23 08:43:50;;;;;;;19.37;14.20;;;;;;;0.62;97.96;99506.38;1760354;81;21460;-79
2022/11/23 08:46:17;;;;;;;19.45;13.90;;;;;;;0.67;98.05;99499.19;1760193;81;21094;-80
2022/11/23 08:48:43;;;;;;;19.32;15.28;;;;;;;0.71;98.00;99499.13;1779729;80;21073;-76
2022/11/23 08:51:10;;;;;;;17.02;13.30;;;;;;;0.76;97.92;99496.72;1735270;81;21010;-77
2022/11/23 08:53:37;;;;;;;21.33;14.20;;;;;;;0.75;97.42;99489.78;1706129;81;20994;-76
2022/11/23 08:56:07;;;;;;;19.15;14.10;;;;;;;0.70;97.46;99495.65;1766256;80;21060;-80
2022/11/23 08:58:35;;;;;;;20.40;15.93;;;;;;;0.71;97.37;99495.97;1787168;80;21034;-74
2022/11/23 09:01:08;;;;;;;21.30;15.20;;;;;;;0.74;97.41;99488.14;1735125;81;21518;-78
2022/11/23 09:03:35;;;;;;;21.97;17.15;;;;;;;0.78;97.35;99485.42;1760735;81;21037;-77
2022/11/23 09:06:01;;;;;;;18.30;15.18;;;;;;;0.78;97.00;99486.73;1762227;80;21035;-75
2022/11/23 09:08:28;;;;;;;19.30;14.33;;;;;;;0.73;96.82;99500.55;1772893;80;21014;-72
2022/11/23 09:11:03;;;;;;;19.17;13.78;;;;;;;0.71;96.64;99490.68;1778794;80;22222;-73
2022/11/23 09:13:33;;;;;;;16.57;12.28;;;;;;;0.66;96.46;99483.00;1760204;81;21507;-72
2022/11/23 09:16:02;;;;;;;19.35;13.62;;;;;;;0.63;96.40;99489.47;1761823;80;21100;-74
2022/11/23 09:18:29;;;;;;;23.15;15.38;;;;;;;0.58;96.28;99481.78;1763013;80;20931;-72
2022/11/23 09:20:56;;;;;;;18.73;14.85;;;;;;;0.59;96.45;99482.11;1751658;81;21010;-74
2022/11/23 09:23:25;;;;;;;22.20;15.63;;;;;;;0.61;96.46;99470.34;1754723;80;20995;-72
2022/11/23 09:25:52;;;;;;;18.00;13.35;;;;;;;0.63;96.30;99478.06;1754217;80;21558;-75
2022/11/23 09:28:19;;;;;;;20.72;16.77;;;;;;;0.63;95.91;99476.74;1757007;80;21138;-71
2022/11/23 09:30:49;;;;;;;20.50;16.07;;;;;;;0.60;95.92;99469.20;1764626;80;20979;-75
2022/11/23 09:33:16;;;;;;;21.05;15.98;;;;;;;0.63;96.05;99463.52;1783104;80;21554;-80
2022/11/23 09:35:42;;;;;;;22.73;14.75;;;;;;;0.67;96.05;99466.11;1774516;80;21091;-75
2022/11/23 09:38:09;;;;;;;18.35;15.08;;;;;;;0.67;95.88;99463.47;1751802;81;20959;-71
2022/11/23 09:40:38;;;;;;;18.00;14.93;;;;;;;0.66;95.79;99460.50;1751740;81;21057;-73
2022/11/23 09:43:43;;;;;;;21.80;14.15;;;;;;;0.67;95.75;99456.85;1753902;80;21044;-76
2022/11/23 09:46:41;;;;;;;19.98;15.38;;;;;;;0.66;95.61;99461.83;1776254;80;20999;-76
2022/11/23 09:49:20;;;;;;;23.47;17.48;;;;;;;0.66;95.39;99471.09;1746409;81;21125;-86
2022/11/23 09:51:47;;;;;;;20.88;15.48;;;;;;;0.57;95.22;99469.09;1736642;80;21060;-70
2022/11/23 09:54:29;;;;;;;21.12;14.28;;;;;;;0.59;95.48;99470.20;1762604;80;21058;-70
2022/11/23 09:56:59;;;;;;;22.58;16.20;;;;;;;0.62;95.69;99469.84;1772314;80;21074;-77
2022/11/23 09:59:46;;;;;;;26.40;17.60;;;;;;;0.60;95.34;99469.20;1735900;80;21055;-73
2022/11/23 10:02:23;;;;;;;22.20;15.23;;;;;;;0.55;95.35;99465.80;1763152;80;21046;-74
2022/11/23 10:04:51;;;;;;;20.35;16.07;;;;;;;0.58;95.69;99468.05;1759162;80;21012;-72
2022/11/23 10:07:36;;;;;;;22.15;16.50;;;;;;;0.63;95.86;99463.52;1761448;80;21904;-72
2022/11/23 10:10:14;;;;;;;18.65;14.20;;;;;;;0.65;95.74;99450.92;1761598;80;21063;-73
2022/11/23 10:12:52;;;;;;;23.02;17.45;;;;;;;0.59;95.49;99449.85;1758154;80;21018;-75
